首页
METAR-TAF:

METAR-TAF

机场 :

Churchill, 曼尼托巴, 加拿大

纬度: 58-44N, 经度: 094-04W, 海拔: 28米

当前天气观测

该预报发布于30分钟前的11:00 UTC
风速8节,风向西转西北
温度 -21°C
湿度 77%
气压 1017 hPa
能見度: 16.1公里
多云层高于3100英尺
多云层高于6500英尺
多云层高于13000英尺
小雪

METAR: CYYQ 171100Z 30008KT 10SM -SN BKN031 BKN065 BKN130 M21/M24 A3002 RMK SC5SC1AC1 SLP171

时间: 05:30 (11:30 UTC)

预报

该预报发布于4小时和17分钟前的07:13 UTC
预报有效从17日的 07点(UTC)到 18日的 06点(UTC)
风速6节,风向西
能見度: 10公里
散云层高于4000英尺
多云层高于8000英尺
短暂存在
从 17日的 07点(UTC)到 17日的 12点(UTC)
能見度: 8.0公里
多云层高于4000英尺
阴天层高于8000英尺
小雪
从 17日的 1200点(UTC)
风速10节,风向西
能見度: 10公里
散云层高于2000英尺
多云层高于4000英尺
短暂存在
从 17日的 12点(UTC)到 18日的 06点(UTC)
能見度: 8.0公里
多云层高于2000英尺
阴天层高于4000英尺
小雪
成为
从 17日的 17点(UTC)到 17日的 19点(UTC)
风速15节,风向西北

TAF: CYYQ 170713Z 1707/1806 26006KT P6SM SCT040 BKN080 TEMPO 1707/1712 5SM -SN BKN040 OVC080 FM171200 28010KT P6SM SCT020 BKN040 TEMPO 1712/1806 5SM -SN BKN020 OVC040 BECMG 1717/1719 32015KT RMK NXT FCST BY 171200Z

超过4000个机场的气象观测和天气预报(METAR&TAF报告)。

可查询的气象台以黄色和红色小点在地图上表示。

将鼠标移到小点上方,可查看气象台名称。

然后点击查看天气观测和预报。

如需切换地图:点击带黑十字的绿色按钮放大地图;点击带横线的绿色按钮缩小地图;或者点击绿色箭头查看邻近地区的地图。


METAR-TAF: